createdAt,value
2022-11-20T19:11:00.621Z,66.41
2022-11-20T19:13:27.004Z,66.37
2022-11-20T19:15:53.378Z,66.09
2022-11-20T19:18:19.758Z,65.22
2022-11-20T19:20:46.149Z,65.23
2022-11-20T19:23:12.553Z,64.77
2022-11-20T19:25:38.999Z,64.60
2022-11-20T19:28:05.386Z,64.18
2022-11-20T19:30:31.785Z,63.96
2022-11-20T19:32:58.167Z,64.28
2022-11-20T19:35:24.575Z,64.71
2022-11-20T19:37:50.955Z,65.19
2022-11-20T19:40:17.321Z,64.84
2022-11-20T19:42:43.718Z,63.98
2022-11-20T19:45:10.112Z,64.27
2022-11-20T19:48:06.058Z,64.26
2022-11-20T19:50:22.863Z,64.13
2022-11-20T19:52:51.104Z,64.14
2022-11-20T19:55:20.783Z,64.01
2022-11-20T19:57:47.170Z,64.16
2022-11-20T20:00:15.597Z,63.86
2022-11-20T20:02:44.727Z,63.37
2022-11-20T20:05:11.105Z,63.37
2022-11-20T20:07:37.498Z,63.51
2022-11-20T20:10:03.905Z,62.93
2022-11-20T20:12:30.274Z,62.63
2022-11-20T20:14:56.667Z,62.45
2022-11-20T20:17:23.049Z,62.30
2022-11-20T20:19:49.505Z,62.34
2022-11-20T20:22:15.884Z,62.40
2022-11-20T20:24:42.273Z,62.38
2022-11-20T20:27:08.675Z,62.29
2022-11-20T20:29:35.075Z,61.91
2022-11-20T20:32:01.438Z,61.82
2022-11-20T20:34:27.811Z,61.94
2022-11-20T20:36:54.209Z,61.67
2022-11-20T20:39:20.779Z,61.65
2022-11-20T20:41:47.437Z,61.67
2022-11-20T20:44:13.833Z,61.98
2022-11-20T20:46:40.232Z,61.94
2022-11-20T20:49:06.612Z,61.96
2022-11-20T20:51:32.984Z,61.79
2022-11-20T20:53:59.379Z,61.77
2022-11-20T20:56:25.788Z,61.79
2022-11-20T20:58:52.175Z,61.59
2022-11-20T21:01:18.646Z,61.52
2022-11-20T21:03:45.082Z,61.48
2022-11-20T21:06:11.450Z,61.48
2022-11-20T21:08:40.328Z,61.33
2022-11-20T21:11:07.347Z,61.30
2022-11-20T21:13:33.733Z,61.27
2022-11-20T21:16:00.122Z,61.38
2022-11-20T21:18:26.501Z,61.20
2022-11-20T21:20:52.873Z,61.15
2022-11-20T21:23:19.267Z,61.18
2022-11-20T21:25:45.639Z,61.00
2022-11-20T21:28:16.808Z,61.20
2022-11-20T21:30:44.603Z,61.11
2022-11-20T21:33:10.985Z,61.04
2022-11-20T21:35:37.371Z,60.89
2022-11-20T21:38:03.777Z,61.08
2022-11-20T21:40:30.144Z,61.14
2022-11-20T21:42:56.528Z,61.21
2022-11-20T21:45:22.921Z,61.23
2022-11-20T21:47:49.298Z,61.01
2022-11-20T21:50:15.683Z,61.23
2022-11-20T21:52:42.071Z,61.22
2022-11-20T21:55:08.466Z,60.83
2022-11-20T21:57:34.848Z,60.56
2022-11-20T22:00:01.234Z,60.09
2022-11-20T22:02:27.618Z,60.04
2022-11-20T22:04:53.995Z,59.46
2022-11-20T22:07:20.408Z,59.05
2022-11-20T22:09:46.913Z,58.84
2022-11-20T22:12:13.285Z,58.57
2022-11-20T22:14:39.642Z,58.49
2022-11-20T22:17:06.007Z,58.36
2022-11-20T22:19:32.388Z,58.39
2022-11-20T22:21:58.746Z,58.34
2022-11-20T22:24:25.423Z,58.23
2022-11-20T22:26:52.113Z,58.39
2022-11-20T22:29:18.508Z,58.27
2022-11-20T22:31:44.878Z,58.38
2022-11-20T22:34:11.242Z,58.35
2022-11-20T22:36:37.704Z,58.31
2022-11-20T22:39:04.065Z,58.22
2022-11-20T22:41:30.450Z,58.39
2022-11-20T22:43:56.855Z,58.36
2022-11-20T22:46:23.241Z,58.45
2022-11-20T22:48:49.636Z,58.39
2022-11-20T22:51:16.034Z,58.51
2022-11-20T22:53:42.409Z,58.63
2022-11-20T22:56:08.770Z,58.47
2022-11-20T22:58:35.135Z,58.29
2022-11-20T23:01:01.518Z,58.35
2022-11-20T23:03:27.934Z,58.28
2022-11-20T23:05:54.306Z,58.32
2022-11-20T23:08:20.671Z,58.43
2022-11-20T23:10:47.063Z,58.44
2022-11-20T23:13:13.433Z,58.33
2022-11-20T23:15:39.805Z,58.15
2022-11-20T23:18:06.189Z,58.27
2022-11-20T23:20:32.569Z,58.01
2022-11-20T23:22:58.941Z,58.20
2022-11-20T23:25:25.300Z,58.12
2022-11-20T23:27:51.700Z,58.20
2022-11-20T23:30:18.062Z,58.09
2022-11-20T23:32:44.418Z,58.18
2022-11-20T23:35:10.797Z,58.22
2022-11-20T23:37:37.163Z,58.17
2022-11-20T23:40:03.628Z,58.20
2022-11-20T23:42:30.017Z,58.12
2022-11-20T23:44:56.409Z,58.29
2022-11-20T23:47:22.790Z,58.19
2022-11-20T23:49:49.279Z,58.21
2022-11-20T23:52:15.638Z,58.22
2022-11-20T23:54:42.005Z,58.18
2022-11-20T23:57:08.374Z,58.16
2022-11-20T23:59:34.758Z,57.94
